Time;durP1;ratioP1;P1;durP2;ratioP2;P2;SDS_P1;SDS_P2;PMS_P1;PMS_P2;Temp;Humidity;BMP_temperature;BMP_pressure;BME280_temperature;BME280_humidity;BME280_pressure;Samples;Min_cycle;Max_cycle;Signal;HPM_P1;HPM_P2
2023/08/04 00:02:10;;;;;;;10.10;3.25;;;17.30;99.90;;;;;;5113994;28;20178;-61
2023/08/04 00:04:36;;;;;;;9.02;2.50;;;17.30;99.90;;;;;;5114663;28;20516;-60
2023/08/04 00:07:03;;;;;;;12.07;2.50;;;17.20;99.90;;;;;;5113793;28;20292;-60
2023/08/04 00:09:28;;;;;;;11.93;2.67;;;17.20;99.90;;;;;;5111931;28;20629;-61
2023/08/04 00:11:54;;;;;;;9.30;2.53;;;17.20;99.90;;;;;;5113492;28;20177;-60
2023/08/04 00:14:20;;;;;;;12.82;2.67;;;17.20;99.90;;;;;;5079421;28;20245;-60
2023/08/04 00:16:46;;;;;;;12.18;2.20;;;17.20;99.90;;;;;;5096395;28;20173;-60
2023/08/04 00:19:12;;;;;;;10.05;2.42;;;17.20;99.90;;;;;;5113418;28;20181;-60
2023/08/04 00:21:38;;;;;;;9.05;2.15;;;17.10;99.90;;;;;;5105692;28;20196;-61
2023/08/04 00:24:04;;;;;;;8.93;2.40;;;17.10;99.90;;;;;;5114265;28;20214;-60
2023/08/04 00:26:31;;;;;;;8.13;2.28;;;17.10;99.90;;;;;;5114229;28;20182;-59
2023/08/04 00:28:57;;;;;;;7.40;2.40;;;17.10;99.90;;;;;;5096214;28;20260;-60
2023/08/04 00:31:23;;;;;;;9.10;2.38;;;17.10;99.90;;;;;;5109570;28;20272;-60
2023/08/04 00:33:49;;;;;;;7.35;2.65;;;17.00;99.90;;;;;;5113953;28;20209;-60
2023/08/04 00:36:15;;;;;;;6.53;2.08;;;17.00;99.90;;;;;;5095112;28;20582;-57
2023/08/04 00:38:41;;;;;;;9.10;2.22;;;17.00;99.90;;;;;;5113555;28;20193;-60
2023/08/04 00:41:07;;;;;;;6.38;2.00;;;17.00;99.90;;;;;;5094151;28;20268;-60
2023/08/04 00:43:33;;;;;;;6.38;1.95;;;17.00;99.90;;;;;;5112843;28;20256;-60
2023/08/04 00:45:59;;;;;;;12.82;2.33;;;17.00;99.90;;;;;;5113547;28;20330;-60
2023/08/04 00:48:25;;;;;;;7.28;2.28;;;17.00;99.90;;;;;;5095483;28;20215;-61
2023/08/04 00:50:51;;;;;;;7.45;2.30;;;17.00;99.90;;;;;;5112521;28;20969;-61
2023/08/04 00:53:17;;;;;;;7.30;2.30;;;16.90;99.90;;;;;;5112697;28;20217;-61
2023/08/04 00:55:43;;;;;;;6.60;2.67;;;16.90;99.90;;;;;;5113154;28;20292;-61
2023/08/04 00:58:11;;;;;;;11.10;2.75;;;16.90;99.90;;;;;;5088085;28;20205;-61
2023/08/04 01:00:39;;;;;;;12.32;2.70;;;16.80;99.90;;;;;;5110077;28;20653;-61
2023/08/04 01:03:05;;;;;;;11.80;2.72;;;16.80;99.90;;;;;;5107269;28;20188;-60
2023/08/04 01:05:39;;;;;;;10.30;3.40;;;16.80;99.90;;;;;;5090628;28;20624;-60
2023/08/04 01:08:18;;;;;;;11.27;3.45;;;16.90;99.90;;;;;;5074758;28;20197;-60
2023/08/04 01:10:59;;;;;;;8.68;2.72;;;16.90;99.90;;;;;;5109441;28;20173;-60
2023/08/04 01:13:28;;;;;;;10.38;2.67;;;16.90;99.90;;;;;;5088931;28;20201;-60
2023/08/04 01:15:56;;;;;;;13.20;3.17;;;16.90;99.90;;;;;;5107817;28;20169;-60
2023/08/04 01:18:21;;;;;;;6.88;2.85;;;16.90;99.90;;;;;;5112930;28;20181;-60
2023/08/04 01:20:48;;;;;;;9.90;3.00;;;16.90;99.90;;;;;;5113112;28;20181;-60
2023/08/04 01:23:15;;;;;;;10.00;2.90;;;16.90;99.90;;;;;;5109281;28;20184;-60
2023/08/04 01:25:42;;;;;;;6.97;2.47;;;17.00;99.90;;;;;;5077587;28;20181;-60
2023/08/04 01:28:12;;;;;;;10.02;2.30;;;16.90;99.90;;;;;;5113087;28;20280;-61
2023/08/04 01:30:42;;;;;;;8.35;2.42;;;16.90;99.90;;;;;;5113172;28;20181;-60
2023/08/04 01:33:08;;;;;;;12.20;2.70;;;16.90;99.90;;;;;;5112994;28;20216;-59
2023/08/04 01:35:34;;;;;;;9.65;2.45;;;17.00;99.90;;;;;;5089512;28;20185;-60
2023/08/04 01:38:00;;;;;;;7.50;2.50;;;17.00;99.90;;;;;;5110245;28;20250;-60
2023/08/04 01:40:26;;;;;;;10.45;2.50;;;17.00;99.90;;;;;;5094519;28;20185;-60
2023/08/04 01:42:51;;;;;;;7.30;2.22;;;17.00;99.90;;;;;;5077602;28;20185;-61
2023/08/04 01:45:19;;;;;;;6.40;2.53;;;17.00;99.90;;;;;;5093656;28;20216;-59
2023/08/04 01:47:45;;;;;;;6.65;2.33;;;17.00;99.90;;;;;;5077596;28;20213;-60
2023/08/04 01:50:11;;;;;;;7.53;2.22;;;16.90;99.90;;;;;;5112959;28;20209;-59
2023/08/04 01:52:37;;;;;;;8.38;2.53;;;16.90;99.90;;;;;;5094044;28;20640;-59
2023/08/04 01:55:04;;;;;;;9.23;2.58;;;17.00;99.90;;;;;;5087384;28;20230;-60
2023/08/04 01:57:30;;;;;;;10.43;2.92;;;16.90;99.90;;;;;;5089093;28;20201;-61
2023/08/04 01:59:56;;;;;;;7.38;2.30;;;16.90;99.90;;;;;;5090885;28;20217;-61
2023/08/04 02:02:22;;;;;;;16.10;2.50;;;16.90;99.90;;;;;;5086903;28;20174;-60
2023/08/04 02:04:48;;;;;;;3.60;2.00;;;16.90;99.90;;;;;;5091128;28;20208;-60
2023/08/04 02:07:14;;;;;;;9.23;2.40;;;16.90;99.90;;;;;;5090462;28;20182;-60
2023/08/04 02:09:42;;;;;;;7.22;2.30;;;16.90;99.90;;;;;;5087571;28;20189;-59
2023/08/04 02:12:08;;;;;;;12.23;2.50;;;16.90;99.90;;;;;;5088640;28;20178;-60
2023/08/04 02:14:34;;;;;;;10.27;2.50;;;16.90;99.90;;;;;;5087645;28;20696;-60
2023/08/04 02:17:00;;;;;;;7.18;2.30;;;16.90;99.90;;;;;;5088995;28;20190;-60
2023/08/04 02:19:38;;;;;;;11.93;2.60;;;16.90;99.90;;;;;;5091029;28;20177;-59
2023/08/04 02:22:04;;;;;;;6.35;2.35;;;16.80;99.90;;;;;;5087773;28;20645;-59
2023/08/04 02:24:31;;;;;;;9.32;3.60;;;16.80;99.90;;;;;;5092141;28;20198;-60
2023/08/04 02:26:57;;;;;;;6.25;2.20;;;16.80;99.90;;;;;;5090983;28;20225;-60
2023/08/04 02:29:23;;;;;;;10.38;2.42;;;16.70;99.90;;;;;;5092098;28;20634;-60
2023/08/04 02:31:50;;;;;;;10.23;2.60;;;16.70;99.90;;;;;;5090673;28;20181;-60
2023/08/04 02:34:16;;;;;;;8.23;2.42;;;16.60;99.90;;;;;;5090720;28;20338;-60
2023/08/04 02:36:42;;;;;;;6.38;2.67;;;16.60;99.90;;;;;;5091418;28;20578;-59
2023/08/04 02:39:08;;;;;;;9.63;2.63;;;16.60;99.90;;;;;;5087500;28;20186;-60
2023/08/04 02:41:34;;;;;;;8.70;2.80;;;16.60;99.90;;;;;;5089351;28;20213;-59
2023/08/04 02:44:02;;;;;;;5.97;2.70;;;16.60;99.90;;;;;;5087544;28;20210;-60
2023/08/04 02:46:28;;;;;;;5.60;2.55;;;16.60;99.90;;;;;;5091866;28;20200;-60
2023/08/04 02:48:54;;;;;;;7.13;2.63;;;16.60;99.90;;;;;;5090786;28;20170;-60
2023/08/04 02:51:20;;;;;;;7.13;2.72;;;16.60;99.90;;;;;;5092123;28;20220;-60
2023/08/04 02:53:48;;;;;;;11.10;3.28;;;16.60;99.90;;;;;;5091615;28;20210;-62
2023/08/04 02:56:19;;;;;;;9.43;3.00;;;16.60;99.90;;;;;;5094839;28;20221;-60
2023/08/04 02:58:47;;;;;;;7.13;2.67;;;16.60;99.90;;;;;;5110862;28;20181;-61
2023/08/04 03:01:14;;;;;;;7.22;2.70;;;16.60;99.90;;;;;;5112149;28;20177;-60
2023/08/04 03:03:40;;;;;;;8.88;2.97;;;16.60;99.90;;;;;;5088966;28;20235;-60
2023/08/04 03:06:06;;;;;;;8.80;2.60;;;16.60;99.90;;;;;;5112285;28;20189;-61
2023/08/04 03:08:32;;;;;;;9.63;2.42;;;16.50;99.90;;;;;;5091514;28;20652;-60
2023/08/04 03:10:59;;;;;;;6.28;2.45;;;16.60;99.90;;;;;;5111160;28;20552;-60
2023/08/04 03:13:25;;;;;;;5.35;2.58;;;16.50;99.90;;;;;;5111329;28;20209;-61
2023/08/04 03:15:59;;;;;;;6.75;2.45;;;16.50;99.90;;;;;;5112017;28;20246;-60
2023/08/04 03:18:25;;;;;;;9.98;2.35;;;16.40;99.90;;;;;;5114924;28;20192;-60
2023/08/04 03:20:52;;;;;;;4.75;2.10;;;16.40;99.90;;;;;;5114696;28;20692;-60
2023/08/04 03:23:18;;;;;;;6.45;2.67;;;16.40;99.90;;;;;;5112065;28;20181;-60
2023/08/04 03:25:44;;;;;;;7.68;2.15;;;16.40;99.90;;;;;;5114785;28;20173;-61
2023/08/04 03:28:10;;;;;;;6.00;2.58;;;16.40;99.90;;;;;;5115302;28;20204;-60
2023/08/04 03:30:36;;;;;;;12.57;2.80;;;16.30;99.90;;;;;;5114135;28;20649;-61
2023/08/04 03:33:02;;;;;;;5.07;2.40;;;16.30;99.90;;;;;;5114761;28;20270;-60
2023/08/04 03:35:29;;;;;;;9.05;3.10;;;16.30;99.90;;;;;;5115267;28;20169;-60
2023/08/04 03:37:55;;;;;;;6.00;2.70;;;16.20;99.90;;;;;;5114285;28;20211;-59
2023/08/04 03:40:21;;;;;;;5.18;2.47;;;16.20;99.90;;;;;;5115212;28;20589;-59
2023/08/04 03:42:47;;;;;;;9.93;3.15;;;16.10;99.90;;;;;;5114335;28;20262;-61
2023/08/04 03:45:13;;;;;;;5.85;3.35;;;16.10;99.90;;;;;;5115018;28;20222;-60
2023/08/04 03:47:39;;;;;;;8.77;3.63;;;16.10;99.90;;;;;;5096448;28;20193;-61
2023/08/04 03:50:06;;;;;;;6.90;2.92;;;16.10;99.90;;;;;;5114890;28;20181;-60
2023/08/04 03:52:33;;;;;;;5.53;2.97;;;16.10;99.90;;;;;;5114174;28;20931;-60
2023/08/04 03:54:59;;;;;;;11.80;3.30;;;16.10;99.90;;;;;;5114199;28;20229;-61
2023/08/04 03:57:25;;;;;;;7.95;3.35;;;16.00;99.90;;;;;;5114685;28;20185;-59
2023/08/04 03:59:52;;;;;;;7.05;3.00;;;16.10;99.90;;;;;;5115097;28;20455;-60
2023/08/04 04:02:19;;;;;;;8.93;3.40;;;16.10;99.90;;;;;;5111485;28;20181;-59
2023/08/04 04:04:44;;;;;;;7.85;3.13;;;16.10;99.90;;;;;;5113813;28;20189;-62
2023/08/04 04:07:10;;;;;;;5.63;2.75;;;16.10;99.90;;;;;;5086156;28;20185;-59
2023/08/04 04:09:36;;;;;;;5.70;2.63;;;16.10;99.90;;;;;;5114753;28;20644;-59
2023/08/04 04:12:03;;;;;;;5.10;2.22;;;16.10;99.90;;;;;;5114571;28;20189;-61
2023/08/04 04:14:28;;;;;;;5.78;2.38;;;16.10;99.90;;;;;;5110145;28;20217;-60
2023/08/04 04:16:55;;;;;;;3.15;2.03;;;16.10;99.90;;;;;;5114359;28;20177;-60
2023/08/04 04:19:21;;;;;;;3.75;2.20;;;16.10;99.90;;;;;;5113240;28;20199;-60
2023/08/04 04:21:47;;;;;;;4.60;2.15;;;16.10;99.90;;;;;;5114105;28;20215;-60
2023/08/04 04:24:13;;;;;;;7.55;2.90;;;16.10;99.90;;;;;;5091281;28;20209;-60
2023/08/04 04:26:39;;;;;;;7.97;2.78;;;16.10;99.90;;;;;;5104463;28;20207;-61
2023/08/04 04:29:05;;;;;;;3.90;2.45;;;16.10;99.90;;;;;;5113406;28;20555;-61
2023/08/04 04:31:31;;;;;;;6.35;2.58;;;16.10;99.90;;;;;;5114199;28;20691;-61
2023/08/04 04:33:57;;;;;;;6.90;2.60;;;16.10;99.90;;;;;;5108021;28;20201;-59
2023/08/04 04:36:22;;;;;;;5.82;3.10;;;16.20;99.90;;;;;;5113839;28;20188;-60
2023/08/04 04:38:48;;;;;;;4.00;2.70;;;16.20;99.90;;;;;;5112207;28;20177;-60
2023/08/04 04:41:14;;;;;;;5.60;3.17;;;16.20;99.90;;;;;;5095485;28;20200;-60
2023/08/04 04:43:40;;;;;;;4.68;2.97;;;16.20;99.90;;;;;;5111699;28;20714;-62
2023/08/04 04:46:06;;;;;;;7.65;2.97;;;16.20;99.90;;;;;;5112956;28;20181;-60
2023/08/04 04:48:32;;;;;;;9.32;2.92;;;16.30;99.90;;;;;;5113859;28;20218;-59
2023/08/04 04:50:58;;;;;;;6.15;2.60;;;16.30;99.90;;;;;;5113710;28;20207;-60
2023/08/04 04:53:24;;;;;;;7.50;2.97;;;16.30;99.90;;;;;;5113668;28;20201;-60
2023/08/04 04:55:50;;;;;;;10.82;3.15;;;16.40;99.90;;;;;;5104694;28;20236;-60
2023/08/04 04:58:16;;;;;;;4.00;2.65;;;16.50;99.90;;;;;;5106446;28;20181;-60
2023/08/04 05:00:42;;;;;;;6.18;2.95;;;16.50;99.90;;;;;;5107215;28;20193;-60
2023/08/04 05:03:10;;;;;;;7.70;3.03;;;16.50;99.90;;;;;;5112268;28;20594;-60
2023/08/04 05:05:38;;;;;;;11.95;3.08;;;16.60;99.90;;;;;;5091995;28;20200;-60
2023/08/04 05:08:04;;;;;;;6.07;3.25;;;16.60;99.90;;;;;;5108981;28;20185;-60
2023/08/04 05:10:30;;;;;;;5.88;3.30;;;16.70;99.90;;;;;;5107871;28;20541;-60
2023/08/04 05:12:56;;;;;;;6.82;3.22;;;16.70;99.90;;;;;;5112779;28;20645;-60
2023/08/04 05:15:22;;;;;;;4.68;2.75;;;16.70;99.90;;;;;;5111732;28;20196;-62
2023/08/04 05:17:48;;;;;;;6.38;2.67;;;16.80;99.90;;;;;;5111580;28;20185;-59
2023/08/04 05:20:14;;;;;;;5.55;3.20;;;16.80;99.90;;;;;;5111977;28;20240;-61
2023/08/04 05:22:41;;;;;;;5.25;3.20;;;16.80;99.90;;;;;;5089000;28;20235;-63
2023/08/04 05:25:08;;;;;;;10.57;3.28;;;16.80;99.90;;;;;;5093671;28;20177;-61
2023/08/04 05:27:34;;;;;;;5.20;2.60;;;16.80;99.90;;;;;;5112348;28;20185;-61
2023/08/04 05:30:00;;;;;;;5.22;2.50;;;16.90;99.90;;;;;;5107846;28;20186;-62
2023/08/04 05:32:27;;;;;;;4.80;3.08;;;16.90;99.90;;;;;;5105572;28;20254;-61
2023/08/04 05:34:53;;;;;;;4.55;2.58;;;16.90;99.90;;;;;;5112653;28;20208;-61
2023/08/04 05:37:20;;;;;;;6.22;2.60;;;16.90;99.90;;;;;;5111323;28;20181;-61
2023/08/04 05:39:46;;;;;;;6.65;2.75;;;17.00;99.90;;;;;;5087570;28;20178;-60
2023/08/04 05:42:12;;;;;;;8.98;3.10;;;17.00;99.90;;;;;;5087756;28;20195;-60
2023/08/04 05:44:38;;;;;;;4.47;2.72;;;17.00;99.90;;;;;;5112514;28;20556;-61
2023/08/04 05:47:04;;;;;;;7.05;3.08;;;17.00;99.90;;;;;;5111729;28;20649;-62
2023/08/04 05:49:33;;;;;;;5.55;2.70;;;17.10;99.90;;;;;;5084697;28;20196;-61
2023/08/04 05:51:59;;;;;;;3.13;2.25;;;17.10;99.90;;;;;;5112189;28;20185;-61
2023/08/04 05:54:25;;;;;;;6.40;2.63;;;17.10;99.90;;;;;;5111627;28;20213;-59
2023/08/04 05:56:51;;;;;;;7.90;2.28;;;17.20;99.90;;;;;;5112691;28;20189;-60
2023/08/04 05:59:17;;;;;;;6.03;2.58;;;17.20;99.90;;;;;;5111204;28;20182;-60
2023/08/04 06:01:44;;;;;;;5.72;2.67;;;17.30;99.90;;;;;;5102481;28;20184;-58
2023/08/04 06:04:10;;;;;;;6.03;2.80;;;17.30;99.90;;;;;;5126142;28;20208;-59
2023/08/04 06:06:37;;;;;;;3.85;2.60;;;17.40;99.90;;;;;;5112200;28;20173;-56
2023/08/04 06:09:03;;;;;;;6.68;2.40;;;17.40;99.90;;;;;;5068347;28;20185;-60
2023/08/04 06:11:30;;;;;;;7.28;3.45;;;17.40;99.90;;;;;;5089846;28;20184;-60
2023/08/04 06:13:56;;;;;;;4.72;2.70;;;17.50;99.90;;;;;;5094128;28;20677;-60
2023/08/04 06:16:21;;;;;;;6.38;3.38;;;17.60;99.90;;;;;;5112369;28;20668;-60
2023/08/04 06:18:47;;;;;;;6.10;3.00;;;17.60;99.90;;;;;;5111113;28;20183;-59
2023/08/04 06:21:13;;;;;;;7.60;2.53;;;17.70;99.90;;;;;;5116803;28;20339;-60
2023/08/04 06:23:45;;;;;;;5.20;2.40;;;17.70;99.90;;;;;;5112024;28;20276;-62
2023/08/04 06:26:12;;;;;;;7.57;2.33;;;17.80;99.90;;;;;;5111770;28;20188;-61
2023/08/04 06:28:40;;;;;;;6.43;2.10;;;17.80;99.90;;;;;;5106619;28;20212;-60
2023/08/04 06:31:06;;;;;;;5.00;2.30;;;17.90;99.90;;;;;;5111206;28;20227;-59
2023/08/04 06:33:32;;;;;;;4.43;1.70;;;17.90;99.90;;;;;;5111757;28;20208;-59
2023/08/04 06:35:58;;;;;;;4.65;2.13;;;17.90;99.90;;;;;;5111927;28;20193;-60
2023/08/04 06:38:23;;;;;;;4.22;2.22;;;18.00;99.90;;;;;;5076309;28;20624;-60
2023/08/04 06:40:50;;;;;;;7.68;2.58;;;18.10;99.90;;;;;;5109794;28;20276;-65
2023/08/04 06:43:16;;;;;;;7.45;2.10;;;18.10;99.90;;;;;;5080684;28;20188;-61
2023/08/04 06:45:42;;;;;;;11.40;2.40;;;18.20;99.90;;;;;;5111838;28;20190;-61
2023/08/04 06:48:08;;;;;;;9.40;2.08;;;18.20;99.90;;;;;;5109636;28;20188;-61
2023/08/04 06:50:34;;;;;;;7.35;2.50;;;18.30;99.90;;;;;;5111162;28;20183;-61
2023/08/04 06:53:00;;;;;;;6.18;2.58;;;18.40;99.90;;;;;;5100422;28;20211;-60
2023/08/04 06:55:25;;;;;;;7.78;2.05;;;18.50;99.90;;;;;;5113261;28;20232;-63
2023/08/04 06:57:52;;;;;;;7.95;2.50;;;18.50;99.90;;;;;;5107180;28;20185;-61
2023/08/04 07:00:18;;;;;;;10.55;2.50;;;18.60;99.90;;;;;;5115385;28;20268;-61
2023/08/04 07:02:48;;;;;;;10.27;2.47;;;18.60;99.90;;;;;;5115893;28;20264;-61
2023/08/04 07:05:15;;;;;;;6.47;2.30;;;18.70;99.90;;;;;;5115509;28;20189;-61
2023/08/04 07:07:42;;;;;;;8.85;2.30;;;18.70;99.90;;;;;;5115315;28;20310;-61
2023/08/04 07:10:10;;;;;;;6.20;2.47;;;18.80;99.90;;;;;;5109948;28;20230;-60
2023/08/04 07:12:37;;;;;;;5.40;2.72;;;18.80;99.90;;;;;;5114749;28;20195;-60
2023/08/04 07:15:04;;;;;;;10.48;2.22;;;18.80;99.90;;;;;;5092923;28;20209;-62
2023/08/04 07:17:30;;;;;;;5.47;2.30;;;18.90;99.90;;;;;;5104151;28;20177;-62
2023/08/04 07:19:57;;;;;;;6.90;2.50;;;19.00;99.90;;;;;;5113469;28;20291;-63
2023/08/04 07:22:23;;;;;;;13.15;2.40;;;19.00;99.90;;;;;;5110134;28;20244;-63
2023/08/04 07:24:53;;;;;;;12.50;2.92;;;19.00;99.90;;;;;;5114534;28;20219;-63
2023/08/04 07:27:19;;;;;;;6.75;2.28;;;19.00;99.90;;;;;;5095979;28;20655;-63
2023/08/04 07:29:45;;;;;;;7.82;2.85;;;19.10;99.90;;;;;;5114189;28;20181;-64
2023/08/04 07:32:11;;;;;;;7.00;2.42;;;19.10;99.90;;;;;;5114994;28;20197;-63
2023/08/04 07:34:37;;;;;;;6.60;2.60;;;19.00;99.90;;;;;;5114394;28;20232;-62
2023/08/04 07:37:03;;;;;;;10.60;2.90;;;19.00;99.90;;;;;;5114767;28;20192;-62
2023/08/04 07:39:29;;;;;;;7.55;2.47;;;19.00;99.90;;;;;;5112419;28;20177;-62
2023/08/04 07:41:55;;;;;;;7.80;2.55;;;19.00;99.90;;;;;;5113579;28;20235;-63
2023/08/04 07:44:21;;;;;;;9.23;2.63;;;19.10;99.90;;;;;;5096612;28;20182;-63
2023/08/04 07:46:47;;;;;;;8.35;2.70;;;19.10;99.90;;;;;;5113355;28;20192;-62
2023/08/04 07:49:13;;;;;;;10.70;2.55;;;19.20;99.90;;;;;;5113483;28;20169;-62
2023/08/04 07:51:40;;;;;;;8.10;2.92;;;19.20;99.90;;;;;;5094817;28;20265;-63
2023/08/04 07:54:06;;;;;;;14.10;3.03;;;19.20;99.90;;;;;;5111666;28;20288;-63
2023/08/04 07:56:35;;;;;;;7.68;2.92;;;19.20;99.90;;;;;;5114562;28;20794;-62
2023/08/04 07:59:02;;;;;;;5.90;2.63;;;19.30;99.90;;;;;;5114144;28;20186;-63
2023/08/04 08:01:28;;;;;;;5.55;1.65;;;19.30;99.90;;;;;;5110777;28;20173;-62
2023/08/04 08:03:54;;;;;;;6.05;2.30;;;19.30;99.90;;;;;;5113817;28;20238;-64
2023/08/04 08:06:19;;;;;;;6.68;2.38;;;19.00;99.90;;;;;;5113804;28;20234;-63
2023/08/04 08:08:46;;;;;;;7.32;2.92;;;18.50;99.90;;;;;;5110253;28;20267;-62
2023/08/04 08:11:12;;;;;;;9.07;3.30;;;18.10;99.90;;;;;;5112833;28;20177;-68
2023/08/04 08:13:38;;;;;;;7.35;2.67;;;17.70;99.90;;;;;;5116365;27;20213;-67
2023/08/04 08:16:14;;;;;;;9.45;2.97;;;17.40;99.90;;;;;;5112534;28;20262;-67
2023/08/04 08:18:41;;;;;;;9.32;3.28;;;17.10;99.90;;;;;;5106767;28;20184;-68
2023/08/04 08:21:08;;;;;;;11.95;3.85;;;17.10;99.90;;;;;;5103471;27;20168;-67
2023/08/04 08:23:35;;;;;;;11.20;3.85;;;17.00;99.90;;;;;;5120254;27;20260;-68
2023/08/04 08:26:02;;;;;;;12.07;4.03;;;17.10;99.90;;;;;;5115759;27;20343;-68
2023/08/04 08:28:28;;;;;;;13.45;5.78;;;17.30;99.90;;;;;;5116793;27;20225;-69
2023/08/04 08:30:55;;;;;;;9.40;4.30;;;17.40;99.90;;;;;;5109721;28;20250;-68
2023/08/04 08:33:21;;;;;;;10.13;3.95;;;17.50;99.90;;;;;;5113192;28;20208;-68
2023/08/04 08:35:47;;;;;;;10.18;3.88;;;17.50;99.90;;;;;;5095493;28;20190;-68
2023/08/04 08:38:13;;;;;;;10.27;3.92;;;17.50;99.90;;;;;;5112877;28;20557;-68
2023/08/04 08:40:39;;;;;;;13.35;4.30;;;17.50;99.90;;;;;;5113615;28;20185;-68
2023/08/04 08:43:05;;;;;;;9.60;3.25;;;17.50;99.90;;;;;;5113391;28;20515;-67
2023/08/04 08:45:33;;;;;;;10.27;3.10;;;17.50;99.90;;;;;;5113646;28;20189;-66
2023/08/04 08:47:59;;;;;;;10.45;3.50;;;17.40;99.90;;;;;;5118399;27;20176;-65
2023/08/04 08:50:27;;;;;;;12.10;3.28;;;17.30;99.90;;;;;;5123810;27;20206;-66
2023/08/04 08:53:05;;;;;;;11.80;3.20;;;17.20;99.90;;;;;;5124202;27;20306;-66
2023/08/04 08:55:32;;;;;;;9.13;3.15;;;17.10;99.90;;;;;;5118201;27;20329;-66
2023/08/04 08:58:00;;;;;;;8.20;3.05;;;17.00;99.90;;;;;;5119877;27;20181;-66
2023/08/04 09:00:27;;;;;;;13.35;3.05;;;17.00;99.90;;;;;;5116597;27;20267;-66
2023/08/04 09:02:53;;;;;;;14.77;3.55;;;17.10;99.90;;;;;;5121547;27;20312;-65
2023/08/04 09:05:19;;;;;;;12.63;3.10;;;17.10;99.90;;;;;;5117480;27;20263;-65
2023/08/04 09:07:45;;;;;;;9.40;2.42;;;17.20;99.90;;;;;;5112055;27;20547;-65
2023/08/04 09:10:11;;;;;;;9.40;2.20;;;17.30;99.90;;;;;;5112561;27;20177;-66
2023/08/04 09:12:37;;;;;;;9.88;1.98;;;17.30;99.90;;;;;;5123587;27;20195;-67
2023/08/04 09:15:04;;;;;;;6.43;2.03;;;17.30;99.90;;;;;;5095710;28;20244;-64
2023/08/04 09:17:35;;;;;;;5.00;1.60;;;17.40;99.90;;;;;;5104791;28;20776;-65
2023/08/04 09:20:04;;;;;;;10.10;2.10;;;17.50;99.90;;;;;;5118634;27;20181;-64
2023/08/04 09:22:32;;;;;;;8.27;1.88;;;17.70;99.90;;;;;;5116295;27;20179;-64
2023/08/04 09:25:00;;;;;;;6.10;1.83;;;17.80;99.90;;;;;;5113164;27;20242;-65
2023/08/04 09:27:30;;;;;;;7.85;1.90;;;17.90;99.90;;;;;;5115036;27;20173;-64
2023/08/04 09:30:02;;;;;;;9.07;2.33;;;18.10;99.90;;;;;;5111574;27;20188;-64
2023/08/04 09:32:28;;;;;;;11.15;3.15;;;18.00;99.90;;;;;;5115898;27;20168;-64
2023/08/04 09:35:05;;;;;;;10.80;2.70;;;17.90;99.90;;;;;;5120031;27;20213;-65
2023/08/04 09:37:32;;;;;;;8.77;2.97;;;17.80;99.90;;;;;;5117075;27;20184;-65
2023/08/04 09:40:03;;;;;;;9.40;2.78;;;17.80;99.90;;;;;;5109971;27;20195;-63
2023/08/04 09:42:30;;;;;;;10.00;2.75;;;17.90;99.90;;;;;;5095411;28;20196;-64
2023/08/04 09:44:56;;;;;;;13.02;3.45;;;18.00;99.90;;;;;;5118374;27;20282;-69
2023/08/04 09:47:24;;;;;;;9.85;2.80;;;18.00;99.90;;;;;;5112691;28;20625;-71
2023/08/04 09:49:51;;;;;;;18.38;3.15;;;18.10;99.90;;;;;;5108366;28;20673;-68
2023/08/04 09:52:21;;;;;;;9.23;3.30;;;18.10;99.90;;;;;;5112135;27;20185;-69
2023/08/04 09:54:49;;;;;;;11.85;2.97;;;18.10;99.90;;;;;;5117895;27;20212;-69
2023/08/04 09:57:15;;;;;;;13.98;3.20;;;18.20;99.90;;;;;;5090104;28;20621;-69
2023/08/04 09:59:41;;;;;;;8.38;2.75;;;18.40;99.90;;;;;;5096435;28;20180;-68
2023/08/04 10:02:08;;;;;;;8.50;2.42;;;18.60;99.90;;;;;;5115159;27;20351;-69
2023/08/04 10:04:36;;;;;;;6.63;2.28;;;18.70;99.90;;;;;;5116268;28;20168;-69
2023/08/04 10:07:03;;;;;;;10.55;2.33;;;18.70;99.90;;;;;;5082486;28;20274;-69
2023/08/04 10:09:34;;;;;;;5.55;1.77;;;18.80;99.90;;;;;;5115419;28;20172;-68
2023/08/04 10:12:01;;;;;;;5.03;1.63;;;18.90;99.90;;;;;;5113601;28;20200;-69
2023/08/04 10:14:27;;;;;;;4.47;1.67;;;19.00;99.90;;;;;;5114757;28;20757;-69
2023/08/04 10:16:54;;;;;;;7.50;1.85;;;19.00;99.90;;;;;;5116866;28;20546;-69
2023/08/04 10:19:23;;;;;;;6.13;1.50;;;19.10;99.90;;;;;;5087987;28;20190;-70
2023/08/04 10:21:51;;;;;;;4.10;1.58;;;19.10;99.90;;;;;;5111378;28;20204;-69
2023/08/04 10:24:21;;;;;;;3.13;1.20;;;19.00;99.90;;;;;;5118651;28;20184;-70
2023/08/04 10:26:52;;;;;;;4.30;1.50;;;19.00;99.90;;;;;;5122092;27;20206;-69
2023/08/04 10:29:20;;;;;;;6.68;1.70;;;18.90;99.90;;;;;;5126978;27;20184;-69
2023/08/04 10:31:51;;;;;;;6.78;1.42;;;19.00;99.90;;;;;;5125248;27;20203;-69
2023/08/04 10:34:31;;;;;;;3.67;1.25;;;19.10;99.90;;;;;;5119041;27;20279;-69
2023/08/04 10:37:09;;;;;;;4.32;1.48;;;19.30;99.90;;;;;;5119500;27;20716;-68
2023/08/04 10:39:43;;;;;;;7.65;1.83;;;19.40;99.90;;;;;;5123247;27;20169;-67
2023/08/04 10:42:12;;;;;;;5.00;1.30;;;19.50;99.90;;;;;;5113728;28;20220;-68
2023/08/04 10:45:04;;;;;;;5.03;1.80;;;19.70;99.90;;;;;;5114488;27;20201;-68
2023/08/04 10:47:46;;;;;;;7.25;1.60;;;19.90;99.90;;;;;;5118173;27;20173;-68
2023/08/04 10:50:13;;;;;;;3.30;1.10;;;19.90;99.90;;;;;;5110457;28;20235;-68
2023/08/04 10:52:40;;;;;;;3.67;1.20;;;19.90;99.90;;;;;;5113603;27;20203;-69
2023/08/04 10:55:08;;;;;;;2.33;1.20;;;19.80;99.90;;;;;;5109278;27;20205;-68
2023/08/04 10:57:36;;;;;;;4.72;1.20;;;19.80;99.90;;;;;;5119784;27;20196;-69
2023/08/04 11:00:05;;;;;;;4.70;1.23;;;19.80;99.90;;;;;;5107086;27;20193;-69
2023/08/04 11:02:32;;;;;;;7.07;1.40;;;19.80;99.90;;;;;;5121809;27;20955;-68
2023/08/04 11:04:58;;;;;;;4.13;1.20;;;20.00;99.90;;;;;;5117121;27;20707;-69
2023/08/04 11:07:24;;;;;;;3.05;1.25;;;20.00;99.90;;;;;;5109091;28;20196;-69
2023/08/04 11:09:52;;;;;;;3.83;1.20;;;20.00;99.90;;;;;;5113459;28;20178;-69
2023/08/04 11:12:19;;;;;;;4.00;1.20;;;20.00;99.90;;;;;;5114645;27;20181;-69
2023/08/04 11:14:45;;;;;;;4.47;1.48;;;20.00;99.90;;;;;;5115006;28;20205;-69
2023/08/04 11:17:17;;;;;;;6.20;1.33;;;20.10;99.90;;;;;;5127220;27;20272;-68
2023/08/04 11:19:44;;;;;;;6.20;1.45;;;20.20;99.90;;;;;;5121738;27;20679;-68
2023/08/04 11:22:14;;;;;;;4.15;1.15;;;20.30;99.90;;;;;;5120612;27;20598;-68
2023/08/04 11:24:41;;;;;;;4.68;1.30;;;20.30;99.90;;;;;;5114491;27;20186;-68
2023/08/04 11:27:12;;;;;;;4.65;1.40;;;20.30;99.90;;;;;;5125033;27;20677;-68
2023/08/04 11:29:38;;;;;;;4.13;1.45;;;20.40;99.90;;;;;;5119963;27;20186;-69
2023/08/04 11:32:25;;;;;;;3.55;1.30;;;20.30;99.90;;;;;;5118681;27;20198;-67
2023/08/04 11:34:54;;;;;;;7.85;1.88;;;20.40;99.90;;;;;;5121920;27;20222;-68
2023/08/04 11:37:22;;;;;;;4.40;1.52;;;20.50;99.90;;;;;;5096120;28;20267;-67
2023/08/04 11:39:48;;;;;;;5.00;1.30;;;20.60;99.90;;;;;;5113491;28;20176;-67
2023/08/04 11:42:15;;;;;;;6.40;1.60;;;20.70;99.90;;;;;;5127454;27;20216;-68
2023/08/04 11:44:42;;;;;;;3.60;1.27;;;20.80;99.90;;;;;;5122701;27;20201;-68
2023/08/04 11:47:10;;;;;;;11.10;1.55;;;20.80;99.90;;;;;;5114555;28;20177;-69
2023/08/04 11:49:38;;;;;;;9.27;1.80;;;20.80;99.90;;;;;;5113817;27;20695;-69
2023/08/04 11:52:10;;;;;;;7.72;2.10;;;20.80;99.90;;;;;;5117887;27;20173;-69
2023/08/04 11:54:54;;;;;;;6.35;1.67;;;20.70;99.90;;;;;;5116669;27;20222;-68
2023/08/04 11:57:20;;;;;;;6.00;1.85;;;20.70;99.90;;;;;;5101395;28;20299;-68
2023/08/04 11:59:51;;;;;;;5.13;1.80;;;20.70;99.90;;;;;;5098202;28;20197;-68
2023/08/04 12:02:17;;;;;;;5.80;1.92;;;20.70;99.90;;;;;;5097418;28;20257;-68
2023/08/04 12:04:43;;;;;;;2.85;1.60;;;20.70;99.90;;;;;;5077825;28;20202;-67
2023/08/04 12:07:10;;;;;;;6.07;1.60;;;20.60;99.90;;;;;;5119363;27;20182;-68
2023/08/04 12:09:36;;;;;;;10.02;1.75;;;20.60;99.90;;;;;;5082478;28;20170;-67
2023/08/04 12:12:05;;;;;;;8.27;1.67;;;20.70;99.90;;;;;;5089792;28;20662;-67
2023/08/04 12:14:31;;;;;;;5.10;1.50;;;20.80;99.90;;;;;;5102837;28;20288;-67
2023/08/04 12:17:00;;;;;;;4.80;1.70;;;21.10;99.90;;;;;;5088276;28;20610;-68
2023/08/04 12:19:28;;;;;;;5.90;1.85;;;21.40;99.90;;;;;;5090946;28;20178;-67
2023/08/04 12:22:03;;;;;;;4.28;1.90;;;21.50;99.90;;;;;;5095784;28;20586;-66
2023/08/04 12:24:30;;;;;;;4.47;1.50;;;21.50;99.90;;;;;;5098471;28;20603;-67
2023/08/04 12:26:57;;;;;;;5.68;1.80;;;21.50;99.90;;;;;;5084983;28;20253;-67
2023/08/04 12:29:23;;;;;;;7.55;1.90;;;21.40;99.90;;;;;;5104787;28;20182;-66
2023/08/04 12:31:50;;;;;;;6.63;1.52;;;21.40;99.90;;;;;;5095607;28;20189;-66
2023/08/04 12:34:16;;;;;;;4.65;1.40;;;21.40;99.90;;;;;;5095936;28;20205;-66
2023/08/04 12:36:42;;;;;;;3.50;1.35;;;21.40;99.90;;;;;;5096307;28;20190;-66
2023/08/04 12:39:08;;;;;;;6.25;1.80;;;21.50;99.90;;;;;;5106716;28;20178;-66
2023/08/04 12:41:37;;;;;;;7.88;1.45;;;21.50;99.90;;;;;;5095223;28;20629;-67
2023/08/04 12:44:03;;;;;;;5.18;1.65;;;21.60;99.90;;;;;;5090756;28;20189;-68
2023/08/04 12:46:29;;;;;;;2.33;1.33;;;21.70;99.90;;;;;;5095395;28;20282;-67